Time;durP1;ratioP1;P1;durP2;ratioP2;P2;SDS_P1;SDS_P2;PMS_P1;PMS_P2;Temp;Humidity;BMP_temperature;BMP_pressure;BME280_temperature;BME280_humidity;BME280_pressure;Samples;Min_cycle;Max_cycle;Signal;HPM_P1;HPM_P2
2022/01/19 00:00:24;;;;;;;6.85;3.33;;;;;;;;;;2113933;28;20040;-47
2022/01/19 00:01:26;;;;;;;6.05;3.08;;;;;;;;;;2114126;28;20464;-50
2022/01/19 00:02:27;;;;;;;5.10;2.50;;;;;;;;;;2111960;28;20116;-47
2022/01/19 00:03:29;;;;;;;7.40;3.03;;;;;;;;;;2114211;28;20040;-48
2022/01/19 00:04:30;;;;;;;5.45;2.60;;;;;;;;;;2113429;28;20052;-50
2022/01/19 00:05:31;;;;;;;5.87;2.90;;;;;;;;;;2111339;28;20044;-49
2022/01/19 00:06:32;;;;;;;6.35;2.85;;;;;;;;;;2113854;28;20276;-47
2022/01/19 00:07:33;;;;;;;5.35;2.53;;;;;;;;;;2112068;28;20377;-50
2022/01/19 00:08:34;;;;;;;4.28;2.45;;;;;;;;;;2112678;28;20085;-48
2022/01/19 00:09:35;;;;;;;6.38;2.83;;;;;;;;;;2114258;28;20123;-49
2022/01/19 00:10:36;;;;;;;6.63;2.73;;;;;;;;;;2111992;28;20047;-47
2022/01/19 00:11:37;;;;;;;4.85;2.80;;;;;;;;;;2112771;28;20122;-49
2022/01/19 00:12:39;;;;;;;7.18;3.00;;;;;;;;;;2114277;28;20177;-48
2022/01/19 00:13:40;;;;;;;7.50;2.90;;;;;;;;;;2110467;28;20112;-47
2022/01/19 00:14:41;;;;;;;7.68;3.35;;;;;;;;;;2114098;28;20062;-48
2022/01/19 00:15:42;;;;;;;5.50;2.58;;;;;;;;;;2114115;28;20131;-50
2022/01/19 00:16:47;;;;;;;12.05;2.92;;;;;;;;;;2110416;28;20452;-50
2022/01/19 00:17:48;;;;;;;3.92;2.40;;;;;;;;;;2114172;28;20062;-47
2022/01/19 00:18:49;;;;;;;3.80;2.00;;;;;;;;;;2112277;28;20105;-51
2022/01/19 00:19:50;;;;;;;6.00;2.30;;;;;;;;;;2111681;28;20126;-49
2022/01/19 00:20:53;;;;;;;6.57;2.88;;;;;;;;;;2114040;28;20056;-47
2022/01/19 00:21:53;;;;;;;8.23;2.92;;;;;;;;;;2113361;28;20047;-47
2022/01/19 00:22:54;;;;;;;8.30;2.60;;;;;;;;;;2112660;28;20487;-46
2022/01/19 00:23:56;;;;;;;6.65;2.83;;;;;;;;;;2114092;28;20117;-47
2022/01/19 00:24:56;;;;;;;5.18;2.50;;;;;;;;;;2112510;28;20453;-47
2022/01/19 00:25:58;;;;;;;3.40;2.00;;;;;;;;;;2105670;28;20052;-48
2022/01/19 00:26:58;;;;;;;4.88;3.08;;;;;;;;;;2105611;28;20174;-48
2022/01/19 00:28:00;;;;;;;5.78;2.65;;;;;;;;;;2109221;28;20047;-49
2022/01/19 00:29:01;;;;;;;4.03;2.10;;;;;;;;;;2113838;28;20480;-47
2022/01/19 00:30:02;;;;;;;6.47;2.57;;;;;;;;;;2113737;28;20052;-47
2022/01/19 00:31:03;;;;;;;5.53;2.42;;;;;;;;;;2111096;28;20126;-48
2022/01/19 00:32:05;;;;;;;6.90;3.08;;;;;;;;;;2113985;28;20043;-47
2022/01/19 00:33:06;;;;;;;6.85;2.35;;;;;;;;;;2111912;28;20493;-47
2022/01/19 00:34:08;;;;;;;5.90;2.53;;;;;;;;;;2111329;28;20503;-47
2022/01/19 00:35:09;;;;;;;4.65;2.38;;;;;;;;;;2114139;28;20168;-46
2022/01/19 00:36:11;;;;;;;5.90;2.85;;;;;;;;;;2111124;28;20569;-50
2022/01/19 00:37:11;;;;;;;7.10;2.72;;;;;;;;;;2113622;28;20048;-47
2022/01/19 00:38:13;;;;;;;6.70;2.80;;;;;;;;;;2113916;28;20107;-47
2022/01/19 00:39:13;;;;;;;7.25;2.50;;;;;;;;;;2111858;28;20043;-47
2022/01/19 00:40:15;;;;;;;4.83;2.23;;;;;;;;;;2114038;28;20062;-46
2022/01/19 00:41:16;;;;;;;4.47;2.47;;;;;;;;;;2114043;28;20130;-49
2022/01/19 00:42:17;;;;;;;5.40;2.65;;;;;;;;;;2110345;28;20043;-47
2022/01/19 00:43:18;;;;;;;8.82;2.60;;;;;;;;;;2113961;28;20456;-46
2022/01/19 00:44:20;;;;;;;6.78;2.70;;;;;;;;;;2112369;28;20059;-48
2022/01/19 00:45:22;;;;;;;5.15;2.60;;;;;;;;;;2111458;28;20067;-47
2022/01/19 00:46:23;;;;;;;8.43;3.42;;;;;;;;;;2114025;28;20043;-48
2022/01/19 00:47:23;;;;;;;6.30;2.58;;;;;;;;;;2111104;28;20040;-47
2022/01/19 00:48:25;;;;;;;5.67;2.70;;;;;;;;;;2112520;28;20048;-47
2022/01/19 00:49:26;;;;;;;8.98;3.85;;;;;;;;;;2113765;28;20550;-47
2022/01/19 00:50:29;;;;;;;9.85;2.95;;;;;;;;;;2110603;28;20047;-49
2022/01/19 00:51:30;;;;;;;7.82;3.00;;;;;;;;;;2113799;28;20047;-47
2022/01/19 00:52:31;;;;;;;4.43;2.57;;;;;;;;;;2113913;28;20046;-47
2022/01/19 00:53:32;;;;;;;5.70;2.60;;;;;;;;;;2110355;28;20054;-48
2022/01/19 00:54:33;;;;;;;6.18;2.53;;;;;;;;;;2113818;28;20283;-50
2022/01/19 00:55:34;;;;;;;6.22;2.80;;;;;;;;;;2113572;28;20127;-50
2022/01/19 00:56:35;;;;;;;6.90;2.55;;;;;;;;;;2111776;28;20126;-47
2022/01/19 00:57:36;;;;;;;6.30;2.50;;;;;;;;;;2113864;28;20043;-50
2022/01/19 00:58:37;;;;;;;7.22;2.92;;;;;;;;;;2111526;28;20052;-47
2022/01/19 00:59:38;;;;;;;6.05;2.42;;;;;;;;;;2111558;28;20043;-47
2022/01/19 01:00:39;;;;;;;6.90;2.40;;;;;;;;;;2113855;28;20061;-48
2022/01/19 01:01:40;;;;;;;8.25;2.78;;;;;;;;;;2110568;28;20056;-50
2022/01/19 01:02:41;;;;;;;6.65;2.50;;;;;;;;;;2113694;28;20499;-48
2022/01/19 01:03:43;;;;;;;4.30;2.30;;;;;;;;;;2113840;28;20051;-47
2022/01/19 01:04:45;;;;;;;4.40;2.83;;;;;;;;;;2111723;28;20044;-47
2022/01/19 01:05:46;;;;;;;13.52;2.95;;;;;;;;;;2114051;28;20047;-48
2022/01/19 01:06:47;;;;;;;5.03;2.60;;;;;;;;;;2113831;28;20500;-49
2022/01/19 01:07:48;;;;;;;6.47;3.03;;;;;;;;;;2110199;28;20036;-48
2022/01/19 01:08:49;;;;;;;5.03;2.65;;;;;;;;;;2113835;28;20044;-48
2022/01/19 01:09:50;;;;;;;7.35;2.50;;;;;;;;;;2111715;28;20048;-46
2022/01/19 01:10:51;;;;;;;7.03;2.83;;;;;;;;;;2112438;28;20043;-47
2022/01/19 01:11:59;;;;;;;5.78;2.75;;;;;;;;;;2113873;28;20666;-50
2022/01/19 01:13:17;;;;;;;17.33;3.25;;;;;;;;;;2110480;28;20135;-47
2022/01/19 01:15:48;;;;;;;6.72;3.70;;;;;;;;;;2105749;28;20040;-47
2022/01/19 01:17:10;;;;;;;7.40;2.90;;;;;;;;;;2112890;28;20063;-48
2022/01/19 01:18:18;;;;;;;7.53;2.90;;;;;;;;;;2113079;28;20480;-47
2022/01/19 01:19:19;;;;;;;7.68;2.72;;;;;;;;;;2113242;28;20039;-46
2022/01/19 01:20:21;;;;;;;5.57;2.60;;;;;;;;;;2115347;28;20047;-49
2022/01/19 01:21:22;;;;;;;6.20;2.95;;;;;;;;;;2112360;28;20047;-47
2022/01/19 01:22:23;;;;;;;7.25;3.08;;;;;;;;;;2113419;28;20483;-47
2022/01/19 01:23:25;;;;;;;6.97;3.15;;;;;;;;;;2115141;28;20290;-46
2022/01/19 01:24:26;;;;;;;9.07;3.67;;;;;;;;;;2112924;28;20132;-47
2022/01/19 01:25:27;;;;;;;7.30;3.57;;;;;;;;;;2115039;28;20134;-47
2022/01/19 01:26:28;;;;;;;7.07;2.92;;;;;;;;;;2115227;28;20568;-47
2022/01/19 01:27:29;;;;;;;7.03;4.13;;;;;;;;;;2112965;28;20086;-47
2022/01/19 01:28:30;;;;;;;5.53;3.03;;;;;;;;;;2115304;28;20047;-47
2022/01/19 01:29:31;;;;;;;8.00;3.25;;;;;;;;;;2114717;28;20067;-49
2022/01/19 01:30:33;;;;;;;5.05;2.60;;;;;;;;;;2113444;28;20479;-47
2022/01/19 01:31:34;;;;;;;6.28;3.17;;;;;;;;;;2115135;28;20044;-47
2022/01/19 01:32:35;;;;;;;7.70;3.28;;;;;;;;;;2113012;28;20168;-47
2022/01/19 01:33:36;;;;;;;7.13;2.67;;;;;;;;;;2112307;28;20093;-46
2022/01/19 01:34:37;;;;;;;4.72;2.70;;;;;;;;;;2115302;28;20061;-47
2022/01/19 01:35:39;;;;;;;9.50;3.80;;;;;;;;;;2113213;28;20039;-47
2022/01/19 01:36:40;;;;;;;5.70;2.90;;;;;;;;;;2114890;28;20048;-46
2022/01/19 01:37:41;;;;;;;6.97;3.10;;;;;;;;;;2115074;28;20385;-47
2022/01/19 01:38:43;;;;;;;7.88;3.25;;;;;;;;;;2111179;28;20526;-47
2022/01/19 01:39:43;;;;;;;7.60;2.95;;;;;;;;;;2106584;28;20568;-46
2022/01/19 01:40:45;;;;;;;6.18;3.50;;;;;;;;;;2106574;28;20048;-47
2022/01/19 01:41:45;;;;;;;10.48;3.40;;;;;;;;;;2111078;28;20131;-47
2022/01/19 01:42:47;;;;;;;6.13;3.20;;;;;;;;;;2115088;28;20101;-47
2022/01/19 01:43:47;;;;;;;9.18;3.53;;;;;;;;;;2113314;28;20043;-50
2022/01/19 01:44:52;;;;;;;7.07;2.85;;;;;;;;;;2113191;28;20423;-47
2022/01/19 01:45:58;;;;;;;8.77;2.85;;;;;;;;;;2115014;28;20082;-48
2022/01/19 01:47:00;;;;;;;6.47;2.85;;;;;;;;;;2114249;28;20497;-48
2022/01/19 01:48:06;;;;;;;;;;;;;;;;;;2107178;28;20040;-47
2022/01/19 01:49:14;;;;;;;6.05;2.83;;;;;;;;;;2106631;28;20002;-47
2022/01/19 01:54:19;;;;;;;5.68;2.47;;;;;;;;;;2114855;28;20593;-50
2022/01/19 01:55:21;;;;;;;7.00;2.63;;;;;;;;;;2113933;28;20134;-48
2022/01/19 01:56:22;;;;;;;4.05;2.40;;;;;;;;;;2113148;28;20147;-49
2022/01/19 01:57:23;;;;;;;6.90;2.97;;;;;;;;;;2114898;28;20054;-47
2022/01/19 01:58:24;;;;;;;7.85;3.03;;;;;;;;;;2111571;28;20043;-48
2022/01/19 01:59:25;;;;;;;6.63;3.08;;;;;;;;;;2114701;28;20576;-47
2022/01/19 02:00:26;;;;;;;6.95;3.42;;;;;;;;;;2114940;28;20123;-47
2022/01/19 02:01:27;;;;;;;6.93;3.20;;;;;;;;;;2111403;28;20079;-48
2022/01/19 02:02:28;;;;;;;9.15;3.30;;;;;;;;;;2115064;28;20051;-47
2022/01/19 02:03:37;;;;;;;8.07;3.10;;;;;;;;;;2115012;28;20047;-47
2022/01/19 02:04:41;;;;;;;8.05;3.08;;;;;;;;;;2113110;28;20272;-46
2022/01/19 02:05:55;;;;;;;6.85;2.90;;;;;;;;;;2114991;28;20130;-50
2022/01/19 02:08:20;;;;;;;8.52;3.50;;;;;;;;;;2088920;28;20123;-47
2022/01/19 02:09:24;;;;;;;9.98;3.20;;;;;;;;;;2105797;28;20091;-47
2022/01/19 02:10:33;;;;;;;8.98;3.55;;;;;;;;;;2108667;28;20404;-46
2022/01/19 02:15:51;;;;;;;6.47;3.47;;;;;;;;;;2111332;28;20106;-47
2022/01/19 02:21:37;;;;;;;6.57;2.92;;;;;;;;;;2114877;28;20055;-46
2022/01/19 02:22:11;;;;;;;5.95;3.13;;;;;;;;;;2114744;28;20131;-43
2022/01/19 02:23:18;;;;;;;10.55;2.97;;;;;;;;;;2114946;28;20051;-43
2022/01/19 02:24:20;;;;;;;11.30;3.85;;;;;;;;;;2111016;28;20095;-43
2022/01/19 02:25:27;;;;;;;5.95;2.90;;;;;;;;;;2114942;28;20123;-43
2022/01/19 02:26:34;;;;;;;7.25;2.90;;;;;;;;;;2114014;28;20168;-43
2022/01/19 02:29:12;;;;;;;6.55;3.00;;;;;;;;;;2114643;28;20056;-42
2022/01/19 02:40:11;;;;;;;10.13;3.45;;;;;;;;;;2114594;28;20047;-47
2022/01/19 02:41:12;;;;;;;5.85;2.38;;;;;;;;;;2111191;28;20176;-47
2022/01/19 02:42:13;;;;;;;6.07;2.30;;;;;;;;;;2114675;28;20461;-47
2022/01/19 02:43:21;;;;;;;6.15;3.30;;;;;;;;;;2113831;28;20131;-47
2022/01/19 02:44:40;;;;;;;5.32;2.65;;;;;;;;;;2112294;28;20051;-46
2022/01/19 02:49:40;;;;;;;7.28;3.33;;;;;;;;;;2110815;28;20500;-47
2022/01/19 02:50:41;;;;;;;7.32;2.95;;;;;;;;;;2114671;28;20122;-49
2022/01/19 02:51:42;;;;;;;7.55;2.67;;;;;;;;;;2114347;28;20047;-50
2022/01/19 02:52:43;;;;;;;6.30;2.92;;;;;;;;;;2111653;28;20050;-47
2022/01/19 02:53:45;;;;;;;7.20;2.88;;;;;;;;;;2114566;28;20096;-51
2022/01/19 02:54:46;;;;;;;5.00;2.72;;;;;;;;;;2113917;28;20043;-47
2022/01/19 02:55:47;;;;;;;5.82;3.60;;;;;;;;;;2111905;28;20130;-47
2022/01/19 02:56:51;;;;;;;8.27;3.45;;;;;;;;;;2114615;28;20131;-48
2022/01/19 02:57:52;;;;;;;5.40;2.80;;;;;;;;;;2110277;28;20040;-46
2022/01/19 02:58:59;;;;;;;7.60;3.10;;;;;;;;;;2114235;28;20048;-47
2022/01/19 03:09:15;;;;;;;5.40;2.90;;;;;;;;;;2109219;28;20492;-47
2022/01/19 03:10:16;;;;;;;6.38;2.95;;;;;;;;;;2113650;28;20258;-48
2022/01/19 03:11:18;;;;;;;6.87;3.03;;;;;;;;;;2114534;28;20492;-50
2022/01/19 03:12:19;;;;;;;5.45;3.08;;;;;;;;;;2111062;28;20130;-47
2022/01/19 03:13:21;;;;;;;7.47;3.10;;;;;;;;;;2114523;28;20134;-47
2022/01/19 03:14:22;;;;;;;7.18;4.03;;;;;;;;;;2114043;28;20046;-47
2022/01/19 03:15:41;;;;;;;9.65;3.60;;;;;;;;;;2112703;28;20048;-46
2022/01/19 03:16:43;;;;;;;6.55;3.10;;;;;;;;;;2114428;28;20100;-47
2022/01/19 03:17:44;;;;;;;6.80;3.28;;;;;;;;;;2112542;28;20054;-47
2022/01/19 03:18:45;;;;;;;7.57;2.83;;;;;;;;;;2113117;28;20048;-46
2022/01/19 03:19:46;;;;;;;7.43;3.13;;;;;;;;;;2114582;28;20043;-48
2022/01/19 03:20:47;;;;;;;6.93;2.88;;;;;;;;;;2110821;28;20568;-47
2022/01/19 03:21:48;;;;;;;7.50;3.53;;;;;;;;;;2114612;28;20055;-48
2022/01/19 03:22:59;;;;;;;6.07;3.03;;;;;;;;;;2114363;28;20395;-47
2022/01/19 03:24:01;;;;;;;6.70;3.10;;;;;;;;;;2112670;28;20068;-46
2022/01/19 03:25:03;;;;;;;8.13;3.42;;;;;;;;;;2114345;28;20050;-46
2022/01/19 03:26:06;;;;;;;7.78;3.22;;;;;;;;;;2112713;28;20448;-47
2022/01/19 03:27:07;;;;;;;7.00;3.30;;;;;;;;;;2106008;28;20048;-48
2022/01/19 03:28:08;;;;;;;8.20;3.37;;;;;;;;;;2105920;28;20530;-49
2022/01/19 03:29:09;;;;;;;5.70;2.92;;;;;;;;;;2111460;28;20280;-47
2022/01/19 03:30:10;;;;;;;6.40;2.97;;;;;;;;;;2114462;28;20051;-46
2022/01/19 03:31:11;;;;;;;6.65;3.08;;;;;;;;;;2112761;28;20130;-46
2022/01/19 03:32:13;;;;;;;5.85;2.80;;;;;;;;;;2111318;28;20092;-48
2022/01/19 03:33:14;;;;;;;10.10;3.15;;;;;;;;;;2114306;28;20567;-46
2022/01/19 03:34:16;;;;;;;7.53;3.25;;;;;;;;;;2112188;28;20058;-50
2022/01/19 03:35:17;;;;;;;8.07;3.50;;;;;;;;;;2112875;28;20572;-48
2022/01/19 03:36:18;;;;;;;6.10;3.27;;;;;;;;;;2114060;28;20054;-47
2022/01/19 03:37:19;;;;;;;7.22;3.67;;;;;;;;;;2113269;28;20046;-47
2022/01/19 03:38:20;;;;;;;6.22;3.00;;;;;;;;;;2113350;28;20090;-47
2022/01/19 03:39:22;;;;;;;5.40;2.97;;;;;;;;;;2114401;28;20177;-47
2022/01/19 03:40:23;;;;;;;7.00;3.72;;;;;;;;;;2110766;28;20048;-47
2022/01/19 03:41:24;;;;;;;7.32;3.25;;;;;;;;;;2113689;28;20055;-47
2022/01/19 03:42:25;;;;;;;7.65;3.15;;;;;;;;;;2113878;28;20403;-48
2022/01/19 03:43:26;;;;;;;8.48;3.65;;;;;;;;;;2112552;28;20055;-48
2022/01/19 03:44:27;;;;;;;6.35;2.70;;;;;;;;;;2114265;28;20049;-47
2022/01/19 03:45:28;;;;;;;6.80;3.17;;;;;;;;;;2112024;28;20047;-49
2022/01/19 03:46:33;;;;;;;6.03;2.97;;;;;;;;;;2111676;28;20172;-47
2022/01/19 03:47:39;;;;;;;5.45;2.83;;;;;;;;;;2114243;28;20035;-48
2022/01/19 03:48:51;;;;;;;7.97;3.42;;;;;;;;;;2112840;28;20054;-50
2022/01/19 03:49:52;;;;;;;7.65;2.58;;;;;;;;;;2105902;28;20142;-47
2022/01/19 03:50:53;;;;;;;6.55;2.95;;;;;;;;;;2105997;28;20071;-48
2022/01/19 03:51:58;;;;;;;6.75;2.92;;;;;;;;;;2109932;28;20047;-50
2022/01/19 03:52:59;;;;;;;7.13;3.45;;;;;;;;;;2114311;28;20076;-49
2022/01/19 03:54:00;;;;;;;7.73;2.90;;;;;;;;;;2112102;28;20043;-47
2022/01/19 03:55:01;;;;;;;5.70;2.60;;;;;;;;;;2105714;28;20073;-48
2022/01/19 03:56:04;;;;;;;7.68;3.45;;;;;;;;;;2105745;28;20481;-48
2022/01/19 03:57:05;;;;;;;6.20;2.75;;;;;;;;;;2108883;28;20130;-47
2022/01/19 03:58:06;;;;;;;5.70;2.90;;;;;;;;;;2114203;28;20122;-47
2022/01/19 03:59:07;;;;;;;6.60;2.83;;;;;;;;;;2114017;28;20780;-48
2022/01/19 04:00:09;;;;;;;7.00;3.03;;;;;;;;;;2111284;28;20044;-49
2022/01/19 04:01:10;;;;;;;7.15;2.95;;;;;;;;;;2114109;28;20087;-48
2022/01/19 04:02:11;;;;;;;8.38;3.40;;;;;;;;;;2113545;28;20051;-50
2022/01/19 04:03:16;;;;;;;6.57;3.38;;;;;;;;;;2111697;28;20044;-49
2022/01/19 04:04:35;;;;;;;7.80;3.03;;;;;;;;;;2113994;28;20126;-46
2022/01/19 04:06:00;;;;;;;7.65;3.47;;;;;;;;;;2112079;28;20059;-46
2022/01/19 04:07:08;;;;;;;10.30;3.45;;;;;;;;;;2114217;28;20054;-48
2022/01/19 04:08:09;;;;;;;9.65;3.67;;;;;;;;;;2111049;28;20131;-47
2022/01/19 04:09:10;;;;;;;6.53;3.03;;;;;;;;;;2113942;28;20138;-47
2022/01/19 04:10:11;;;;;;;8.67;3.13;;;;;;;;;;2114085;28;20280;-46
2022/01/19 04:11:15;;;;;;;10.35;3.97;;;;;;;;;;2112034;28;20414;-47
2022/01/19 04:12:19;;;;;;;9.50;3.20;;;;;;;;;;2114103;28;20413;-46
2022/01/19 04:13:30;;;;;;;7.18;3.35;;;;;;;;;;2113630;28;20104;-47
2022/01/19 04:14:31;;;;;;;9.27;3.80;;;;;;;;;;2111794;28;20047;-48
2022/01/19 04:15:32;;;;;;;8.93;4.20;;;;;;;;;;2114395;28;20109;-46
2022/01/19 04:16:33;;;;;;;8.73;3.92;;;;;;;;;;2110741;28;20103;-47
2022/01/19 04:17:36;;;;;;;8.63;4.17;;;;;;;;;;2112778;28;20073;-46
2022/01/19 04:18:37;;;;;;;8.73;4.05;;;;;;;;;;2113906;28;20050;-47
2022/01/19 04:19:43;;;;;;;7.27;3.60;;;;;;;;;;2110565;28;20048;-47
2022/01/19 04:20:48;;;;;;;11.43;3.85;;;;;;;;;;2105929;28;20096;-42
2022/01/19 04:21:49;;;;;;;8.50;4.45;;;;;;;;;;2105404;28;20078;-43
2022/01/19 04:22:50;;;;;;;8.32;3.90;;;;;;;;;;2112275;28;20054;-43
2022/01/19 04:23:51;;;;;;;8.50;3.63;;;;;;;;;;2114096;28;20056;-42
2022/01/19 04:24:52;;;;;;;11.20;3.70;;;;;;;;;;2112059;28;20104;-42
2022/01/19 04:25:54;;;;;;;10.48;4.18;;;;;;;;;;2111432;28;20449;-43
2022/01/19 04:28:14;;;;;;;9.57;4.28;;;;;;;;;;2110981;28;20146;-42
2022/01/19 04:29:15;;;;;;;6.20;3.50;;;;;;;;;;2114019;28;20104;-43
2022/01/19 04:30:17;;;;;;;8.48;3.05;;;;;;;;;;2114054;28;20450;-42
2022/01/19 04:31:17;;;;;;;10.60;3.47;;;;;;;;;;2110578;28;20130;-43
2022/01/19 04:32:20;;;;;;;8.50;3.13;;;;;;;;;;2114162;28;20453;-42
2022/01/19 04:33:24;;;;;;;9.68;3.85;;;;;;;;;;2111976;28;20047;-43
2022/01/19 04:34:25;;;;;;;7.95;3.65;;;;;;;;;;2112451;28;20134;-43
2022/01/19 04:35:30;;;;;;;7.57;3.27;;;;;;;;;;2114152;28;20511;-43
2022/01/19 04:36:36;;;;;;;6.78;3.22;;;;;;;;;;2112053;28;20051;-42
2022/01/19 04:37:50;;;;;;;10.15;4.13;;;;;;;;;;2113511;28;20084;-42
2022/01/19 04:39:20;;;;;;;10.38;3.45;;;;;;;;;;2113007;28;20052;-42
2022/01/19 05:01:34;;;;;;;7.95;3.22;;;;;;;;;;2106883;28;20048;-43
2022/01/19 05:01:47;;;;;;;11.98;5.57;;;;;;;;;;2114678;28;20521;-43
2022/01/19 05:04:19;;;;;;;8.68;4.55;;;;;;;;;;2104204;28;20047;-43
2022/01/19 05:05:26;;;;;;;9.32;4.30;;;;;;;;;;2113804;28;20075;-43
2022/01/19 05:06:27;;;;;;;8.00;3.40;;;;;;;;;;2115319;28;20049;-43
2022/01/19 05:07:34;;;;;;;9.07;4.40;;;;;;;;;;2112691;28;20054;-43
2022/01/19 05:08:50;;;;;;;6.43;3.72;;;;;;;;;;2106959;28;20413;-43
2022/01/19 05:10:02;;;;;;;8.02;3.83;;;;;;;;;;2106624;28;20244;-43
2022/01/19 05:13:50;;;;;;;7.32;3.25;;;;;;;;;;2113488;28;20134;-43
2022/01/19 05:14:51;;;;;;;10.13;4.22;;;;;;;;;;2115362;28;20083;-43
2022/01/19 05:15:52;;;;;;;7.65;3.92;;;;;;;;;;2113281;28;21106;-43
2022/01/19 05:16:54;;;;;;;11.82;4.35;;;;;;;;;;2115087;28;20130;-43
2022/01/19 05:17:54;;;;;;;10.73;3.80;;;;;;;;;;2115225;28;20512;-43
2022/01/19 05:18:56;;;;;;;9.00;4.37;;;;;;;;;;2110342;28;20062;-43
2022/01/19 05:19:56;;;;;;;9.40;4.35;;;;;;;;;;2115111;28;20130;-43
2022/01/19 05:20:58;;;;;;;9.67;3.97;;;;;;;;;;2115235;28;20142;-43
2022/01/19 05:21:58;;;;;;;8.60;3.80;;;;;;;;;;2110490;28;20138;-43
2022/01/19 05:23:00;;;;;;;9.25;4.55;;;;;;;;;;2115325;28;20050;-43
2022/01/19 05:24:04;;;;;;;11.45;5.50;;;;;;;;;;2114785;28;20520;-43
2022/01/19 05:25:05;;;;;;;9.63;4.35;;;;;;;;;;2113002;28;20047;-43
2022/01/19 05:26:06;;;;;;;15.25;5.63;;;;;;;;;;2115177;28;20130;-43
2022/01/19 05:27:07;;;;;;;8.75;5.00;;;;;;;;;;2114290;28;20131;-43
2022/01/19 05:28:08;;;;;;;11.48;5.82;;;;;;;;;;2113808;28;20054;-43
2022/01/19 05:29:10;;;;;;;9.88;5.50;;;;;;;;;;2115205;28;20135;-43
2022/01/19 05:30:12;;;;;;;13.10;6.32;;;;;;;;;;2111617;28;20147;-43
2022/01/19 05:31:12;;;;;;;;;;;;;;;;;;2115652;28;20474;-43
2022/01/19 05:32:14;;;;;;;10.85;5.10;;;;;;;;;;2115160;28;19920;-43
2022/01/19 05:33:14;;;;;;;10.40;4.40;;;;;;;;;;2112878;28;20039;-43
2022/01/19 05:34:16;;;;;;;10.27;4.33;;;;;;;;;;2115312;28;20088;-43
2022/01/19 05:35:16;;;;;;;12.48;4.65;;;;;;;;;;2114064;28;20043;-43
2022/01/19 05:36:18;;;;;;;9.25;4.13;;;;;;;;;;2112540;28;20605;-43
2022/01/19 05:37:19;;;;;;;9.48;3.97;;;;;;;;;;2115038;28;20082;-43
2022/01/19 05:38:20;;;;;;;8.60;3.83;;;;;;;;;;2114168;28;20048;-43
2022/01/19 05:39:21;;;;;;;12.32;5.65;;;;;;;;;;2107272;28;20074;-43
2022/01/19 05:40:22;;;;;;;12.40;5.18;;;;;;;;;;2106657;28;20044;-43
2022/01/19 05:41:23;;;;;;;13.80;5.53;;;;;;;;;;2107022;28;20416;-43
2022/01/19 05:42:24;;;;;;;12.02;5.60;;;;;;;;;;2114430;28;20126;-43
2022/01/19 05:43:25;;;;;;;12.27;5.47;;;;;;;;;;2115000;28;20047;-43
2022/01/19 05:44:26;;;;;;;11.63;4.75;;;;;;;;;;2111267;28;20071;-43
2022/01/19 05:45:28;;;;;;;12.15;4.85;;;;;;;;;;2115035;28;20441;-43
2022/01/19 05:46:29;;;;;;;10.32;4.47;;;;;;;;;;2115112;28;20054;-44
2022/01/19 05:47:31;;;;;;;10.35;4.40;;;;;;;;;;2111470;28;20533;-43
2022/01/19 05:48:32;;;;;;;12.48;5.00;;;;;;;;;;2115134;28;20123;-43
2022/01/19 05:49:33;;;;;;;12.65;5.88;;;;;;;;;;2112846;28;20109;-43
2022/01/19 05:50:34;;;;;;;14.13;4.75;;;;;;;;;;2113467;28;20040;-43
2022/01/19 05:51:35;;;;;;;10.75;5.13;;;;;;;;;;2115149;28;20146;-43
2022/01/19 05:52:36;;;;;;;8.32;4.55;;;;;;;;;;2112789;28;20044;-43
2022/01/19 05:53:37;;;;;;;10.07;4.70;;;;;;;;;;2113413;28;20357;-43
2022/01/19 05:54:39;;;;;;;15.60;5.43;;;;;;;;;;2114963;28;20129;-43
2022/01/19 05:55:40;;;;;;;11.35;4.82;;;;;;;;;;2112194;28;20122;-43
2022/01/19 05:56:40;;;;;;;11.65;5.10;;;;;;;;;;2106426;28;20139;-43
2022/01/19 05:57:41;;;;;;;13.70;5.40;;;;;;;;;;2106687;28;20051;-43
2022/01/19 05:58:43;;;;;;;10.20;5.03;;;;;;;;;;2109960;28;20047;-43
2022/01/19 05:59:46;;;;;;;11.88;4.85;;;;;;;;;;2114848;28;20554;-43
2022/01/19 06:00:47;;;;;;;14.90;5.45;;;;;;;;;;2113795;28;20526;-43
2022/01/19 06:01:48;;;;;;;11.25;4.75;;;;;;;;;;2112580;28;20545;-43
2022/01/19 06:02:50;;;;;;;14.30;5.43;;;;;;;;;;2115058;28;20051;-43
2022/01/19 06:03:52;;;;;;;10.13;4.97;;;;;;;;;;2113945;28;20052;-43
2022/01/19 06:04:53;;;;;;;10.73;5.45;;;;;;;;;;2112965;28;20556;-43
2022/01/19 06:05:54;;;;;;;11.50;5.03;;;;;;;;;;2114962;28;20051;-43
2022/01/19 06:06:56;;;;;;;10.35;4.43;;;;;;;;;;2112902;28;20047;-43
2022/01/19 06:08:11;;;;;;;10.88;4.80;;;;;;;;;;2113866;28;20043;-43
2022/01/19 06:09:32;;;;;;;11.00;4.40;;;;;;;;;;2114957;28;20051;-43
2022/01/19 06:10:42;;;;;;;8.98;4.30;;;;;;;;;;2112739;28;20450;-43
2022/01/19 06:11:43;;;;;;;8.27;4.05;;;;;;;;;;2114899;28;20276;-43
2022/01/19 06:12:44;;;;;;;12.35;4.72;;;;;;;;;;2111417;28;20051;-43
2022/01/19 06:13:45;;;;;;;10.13;4.50;;;;;;;;;;2106438;28;20054;-43
2022/01/19 06:14:47;;;;;;;10.93;5.20;;;;;;;;;;2106469;28;20058;-44
2022/01/19 06:15:48;;;;;;;10.73;4.68;;;;;;;;;;2110606;28;20552;-43
2022/01/19 06:16:49;;;;;;;16.20;5.15;;;;;;;;;;2114865;28;20069;-43
2022/01/19 06:17:50;;;;;;;13.80;5.47;;;;;;;;;;2113414;28;20051;-43
2022/01/19 06:18:52;;;;;;;11.55;5.22;;;;;;;;;;2112770;28;20407;-43
2022/01/19 06:19:52;;;;;;;9.80;5.10;;;;;;;;;;2115066;28;20051;-43
2022/01/19 06:20:54;;;;;;;12.13;6.63;;;;;;;;;;2113628;28;20044;-43
2022/01/19 06:21:54;;;;;;;11.43;5.63;;;;;;;;;;2112915;28;20173;-43
2022/01/19 06:22:56;;;;;;;10.15;5.60;;;;;;;;;;2114872;28;20052;-43
2022/01/19 06:23:57;;;;;;;9.35;4.97;;;;;;;;;;2111114;28;20050;-43
2022/01/19 06:24:58;;;;;;;9.90;4.50;;;;;;;;;;2114565;28;20073;-43
2022/01/19 06:25:59;;;;;;;10.40;5.07;;;;;;;;;;2114904;28;20489;-43
2022/01/19 06:27:00;;;;;;;10.80;4.70;;;;;;;;;;2111060;28;20568;-43
2022/01/19 06:28:01;;;;;;;11.03;5.43;;;;;;;;;;2114845;28;20055;-43
2022/01/19 06:29:02;;;;;;;11.95;5.68;;;;;;;;;;2114714;28;20320;-43
2022/01/19 06:30:05;;;;;;;10.60;5.20;;;;;;;;;;2111796;28;20349;-43
2022/01/19 06:31:06;;;;;;;10.73;5.47;;;;;;;;;;2114857;28;20047;-43
2022/01/19 06:32:07;;;;;;;12.15;4.95;;;;;;;;;;2112614;28;20035;-43
2022/01/19 06:33:08;;;;;;;12.32;4.78;;;;;;;;;;2113489;28;20043;-43
2022/01/19 06:34:13;;;;;;;12.13;4.97;;;;;;;;;;2114288;28;20138;-43
2022/01/19 06:35:14;;;;;;;8.43;4.27;;;;;;;;;;2112842;28;20397;-43
2022/01/19 06:36:15;;;;;;;9.45;5.05;;;;;;;;;;2114439;28;20126;-43
2022/01/19 06:37:16;;;;;;;11.30;4.95;;;;;;;;;;2114702;28;20052;-43
2022/01/19 06:38:18;;;;;;;11.90;5.05;;;;;;;;;;2109955;28;20134;-43
2022/01/19 06:39:18;;;;;;;10.02;4.47;;;;;;;;;;2114526;28;20079;-43
2022/01/19 06:40:25;;;;;;;8.20;4.03;;;;;;;;;;2114603;28;20047;-43
2022/01/19 06:41:26;;;;;;;11.02;4.90;;;;;;;;;;2111966;28;20445;-43
2022/01/19 06:42:29;;;;;;;8.27;4.70;;;;;;;;;;2114560;28;20069;-43
2022/01/19 06:43:30;;;;;;;10.63;5.25;;;;;;;;;;2112593;28;20485;-43
2022/01/19 06:44:31;;;;;;;9.95;4.65;;;;;;;;;;2113275;28;20614;-43
2022/01/19 06:45:32;;;;;;;10.52;4.82;;;;;;;;;;2114622;28;20453;-43
2022/01/19 06:46:34;;;;;;;11.65;4.90;;;;;;;;;;2112735;28;20063;-43
2022/01/19 06:47:35;;;;;;;10.82;5.38;;;;;;;;;;2114309;28;20051;-43
2022/01/19 06:48:36;;;;;;;8.98;4.20;;;;;;;;;;2114709;28;20074;-43
2022/01/19 06:49:37;;;;;;;8.20;4.70;;;;;;;;;;2110940;28;20108;-43
2022/01/19 06:50:38;;;;;;;9.13;4.18;;;;;;;;;;2114575;28;20043;-43
2022/01/19 06:51:39;;;;;;;9.25;4.30;;;;;;;;;;2114679;28;20047;-43
2022/01/19 06:52:40;;;;;;;13.13;4.60;;;;;;;;;;2112515;28;20366;-43
2022/01/19 06:53:41;;;;;;;9.82;4.38;;;;;;;;;;2114428;28;20446;-43
2022/01/19 06:54:42;;;;;;;9.13;4.70;;;;;;;;;;2114158;28;20051;-43
2022/01/19 06:55:43;;;;;;;11.30;4.60;;;;;;;;;;2112108;28;20108;-43
2022/01/19 06:56:44;;;;;;;11.43;5.20;;;;;;;;;;2114679;28;20044;-43
2022/01/19 06:57:45;;;;;;;12.10;5.53;;;;;;;;;;2111770;28;20404;-43
2022/01/19 06:58:46;;;;;;;9.13;4.50;;;;;;;;;;2112565;28;20044;-43
2022/01/19 06:59:51;;;;;;;8.45;4.40;;;;;;;;;;2114420;28;20047;-44
2022/01/19 07:00:52;;;;;;;10.38;4.55;;;;;;;;;;2111070;28;20039;-43
2022/01/19 07:01:53;;;;;;;14.90;5.25;;;;;;;;;;2114397;28;20432;-44
2022/01/19 07:02:54;;;;;;;11.50;5.43;;;;;;;;;;2114585;28;20050;-43
2022/01/19 07:03:56;;;;;;;11.70;5.03;;;;;;;;;;2110794;28;20051;-43
2022/01/19 07:04:57;;;;;;;8.40;5.20;;;;;;;;;;2114604;28;20039;-44
2022/01/19 07:05:58;;;;;;;8.65;4.60;;;;;;;;;;2113455;28;20043;-43
2022/01/19 07:06:59;;;;;;;7.07;3.75;;;;;;;;;;2112179;28;20403;-44
2022/01/19 07:08:00;;;;;;;12.87;4.90;;;;;;;;;;2114479;28;20043;-44
2022/01/19 07:09:01;;;;;;;11.60;4.95;;;;;;;;;;2113704;28;20180;-44
2022/01/19 07:10:02;;;;;;;11.03;4.83;;;;;;;;;;2113111;28;20088;-43
2022/01/19 07:11:03;;;;;;;9.20;4.60;;;;;;;;;;2114468;28;20062;-43
2022/01/19 07:12:04;;;;;;;10.90;5.10;;;;;;;;;;2111702;28;20373;-44
2022/01/19 07:13:05;;;;;;;9.00;5.07;;;;;;;;;;2114195;28;20087;-43
2022/01/19 07:14:08;;;;;;;11.55;4.78;;;;;;;;;;2114285;28;20524;-44
2022/01/19 07:15:09;;;;;;;10.15;5.22;;;;;;;;;;2112212;28;20503;-44
2022/01/19 07:16:11;;;;;;;10.00;4.82;;;;;;;;;;2113751;28;20108;-43
2022/01/19 07:17:12;;;;;;;8.60;4.93;;;;;;;;;;2114214;28;20503;-44
2022/01/19 07:18:13;;;;;;;11.43;5.20;;;;;;;;;;2111404;28;20051;-44
2022/01/19 07:19:14;;;;;;;13.65;5.70;;;;;;;;;;2114272;28;20160;-44